sensor_id;sensor_type;location;lat;lon;timestamp;temperature;humidity
68177;DHT22;56478;50.982;7.032;2024-01-11T00:01:48;-3.47;77.00
68177;DHT22;56478;50.982;7.032;2024-01-11T00:04:14;-3.43;76.72
68177;DHT22;56478;50.982;7.032;2024-01-11T00:06:43;-3.43;76.74
68177;DHT22;56478;50.982;7.032;2024-01-11T00:09:08;-3.47;77.18
68177;DHT22;56478;50.982;7.032;2024-01-11T00:11:34;-3.42;76.96
68177;DHT22;56478;50.982;7.032;2024-01-11T00:14:02;-3.32;76.52
68177;DHT22;56478;50.982;7.032;2024-01-11T00:16:47;-3.39;76.48
68177;DHT22;56478;50.982;7.032;2024-01-11T00:19:18;-3.40;77.70
68177;DHT22;56478;50.982;7.032;2024-01-11T00:22:06;-3.37;77.09
68177;DHT22;56478;50.982;7.032;2024-01-11T00:24:34;-3.44;76.81
68177;DHT22;56478;50.982;7.032;2024-01-11T00:26:59;-3.42;76.85
68177;DHT22;56478;50.982;7.032;2024-01-11T00:29:28;-3.43;76.95
68177;DHT22;56478;50.982;7.032;2024-01-11T00:31:59;-3.46;77.00
68177;DHT22;56478;50.982;7.032;2024-01-11T00:34:25;-3.48;76.89
68177;DHT22;56478;50.982;7.032;2024-01-11T00:37:00;-3.54;77.48
68177;DHT22;56478;50.982;7.032;2024-01-11T00:39:25;-3.53;77.21
68177;DHT22;56478;50.982;7.032;2024-01-11T00:41:51;-3.50;77.10
68177;DHT22;56478;50.982;7.032;2024-01-11T00:44:19;-3.57;77.69
68177;DHT22;56478;50.982;7.032;2024-01-11T00:46:45;-3.65;77.78
68177;DHT22;56478;50.982;7.032;2024-01-11T00:49:12;-3.58;77.63
68177;DHT22;56478;50.982;7.032;2024-01-11T00:51:38;-3.70;77.61
68177;DHT22;56478;50.982;7.032;2024-01-11T00:54:06;-3.68;77.69
68177;DHT22;56478;50.982;7.032;2024-01-11T00:56:39;-3.70;77.05
68177;DHT22;56478;50.982;7.032;2024-01-11T00:59:10;-3.79;78.03
68177;DHT22;56478;50.982;7.032;2024-01-11T01:01:35;-3.74;77.98
68177;DHT22;56478;50.982;7.032;2024-01-11T01:04:01;-3.72;77.51
68177;DHT22;56478;50.982;7.032;2024-01-11T01:06:30;-3.71;78.06
68177;DHT22;56478;50.982;7.032;2024-01-11T01:08:55;-3.68;77.95
68177;DHT22;56478;50.982;7.032;2024-01-11T01:11:24;-3.71;77.98
68177;DHT22;56478;50.982;7.032;2024-01-11T01:13:49;-3.77;77.99
68177;DHT22;56478;50.982;7.032;2024-01-11T01:16:21;-3.82;78.01
68177;DHT22;56478;50.982;7.032;2024-01-11T01:18:49;-3.83;78.07
68177;DHT22;56478;50.982;7.032;2024-01-11T01:21:15;-3.82;78.01
68177;DHT22;56478;50.982;7.032;2024-01-11T01:23:40;-3.92;78.18
68177;DHT22;56478;50.982;7.032;2024-01-11T01:26:06;-3.96;78.46
68177;DHT22;56478;50.982;7.032;2024-01-11T01:28:31;-3.88;78.33
68177;DHT22;56478;50.982;7.032;2024-01-11T01:31:03;-3.88;77.94
68177;DHT22;56478;50.982;7.032;2024-01-11T01:33:29;-3.85;78.31
68177;DHT22;56478;50.982;7.032;2024-01-11T01:35:54;-3.88;78.08
68177;DHT22;56478;50.982;7.032;2024-01-11T01:38:20;-3.89;78.39
68177;DHT22;56478;50.982;7.032;2024-01-11T01:40:45;-3.83;77.73
68177;DHT22;56478;50.982;7.032;2024-01-11T01:43:13;-3.85;78.66
68177;DHT22;56478;50.982;7.032;2024-01-11T01:45:39;-3.85;77.77
68177;DHT22;56478;50.982;7.032;2024-01-11T01:48:04;-3.86;78.30
68177;DHT22;56478;50.982;7.032;2024-01-11T01:50:33;-3.98;77.99
68177;DHT22;56478;50.982;7.032;2024-01-11T01:52:59;-4.09;78.11
68177;DHT22;56478;50.982;7.032;2024-01-11T01:55:25;-3.96;78.67
68177;DHT22;56478;50.982;7.032;2024-01-11T01:57:53;-3.85;78.66
68177;DHT22;56478;50.982;7.032;2024-01-11T02:00:23;-3.98;79.45
68177;DHT22;56478;50.982;7.032;2024-01-11T02:02:50;-3.92;79.33
68177;DHT22;56478;50.982;7.032;2024-01-11T02:05:19;-3.88;78.93
68177;DHT22;56478;50.982;7.032;2024-01-11T02:07:48;-3.85;78.92
68177;DHT22;56478;50.982;7.032;2024-01-11T02:10:16;-3.92;79.11
68177;DHT22;56478;50.982;7.032;2024-01-11T02:12:45;-3.95;78.77
68177;DHT22;56478;50.982;7.032;2024-01-11T02:15:10;-3.98;79.10
68177;DHT22;56478;50.982;7.032;2024-01-11T02:17:39;-3.93;78.95
68177;DHT22;56478;50.982;7.032;2024-01-11T02:20:05;-3.89;78.63
68177;DHT22;56478;50.982;7.032;2024-01-11T02:22:38;-3.88;78.74
68177;DHT22;56478;50.982;7.032;2024-01-11T02:25:07;-3.96;79.12
68177;DHT22;56478;50.982;7.032;2024-01-11T02:27:44;-4.07;79.69
68177;DHT22;56478;50.982;7.032;2024-01-11T02:30:09;-4.10;79.75
68177;DHT22;56478;50.982;7.032;2024-01-11T02:32:35;-4.02;79.61
68177;DHT22;56478;50.982;7.032;2024-01-11T02:35:01;-4.07;79.11
68177;DHT22;56478;50.982;7.032;2024-01-11T02:37:26;-3.96;79.20
68177;DHT22;56478;50.982;7.032;2024-01-11T02:39:52;-3.88;79.15
68177;DHT22;56478;50.982;7.032;2024-01-11T02:42:18;-3.98;79.01
68177;DHT22;56478;50.982;7.032;2024-01-11T02:44:43;-4.05;79.06
68177;DHT22;56478;50.982;7.032;2024-01-11T02:47:09;-3.99;79.38
68177;DHT22;56478;50.982;7.032;2024-01-11T02:49:34;-4.07;79.10
68177;DHT22;56478;50.982;7.032;2024-01-11T02:52:00;-3.96;79.04
68177;DHT22;56478;50.982;7.032;2024-01-11T02:54:25;-4.03;78.47
68177;DHT22;56478;50.982;7.032;2024-01-11T02:56:51;-4.02;78.62
68177;DHT22;56478;50.982;7.032;2024-01-11T02:59:16;-3.99;78.12
68177;DHT22;56478;50.982;7.032;2024-01-11T03:01:42;-4.07;78.15
68177;DHT22;56478;50.982;7.032;2024-01-11T03:04:07;-4.11;78.75
68177;DHT22;56478;50.982;7.032;2024-01-11T03:06:32;-4.16;78.15
68177;DHT22;56478;50.982;7.032;2024-01-11T03:08:58;-4.11;78.37
68177;DHT22;56478;50.982;7.032;2024-01-11T03:11:24;-4.13;78.39
68177;DHT22;56478;50.982;7.032;2024-01-11T03:13:49;-4.10;78.52
68177;DHT22;56478;50.982;7.032;2024-01-11T03:16:15;-4.16;78.47
68177;DHT22;56478;50.982;7.032;2024-01-11T03:18:40;-4.16;78.42
68177;DHT22;56478;50.982;7.032;2024-01-11T03:21:06;-4.20;77.95
68177;DHT22;56478;50.982;7.032;2024-01-11T03:23:31;-4.16;78.37
68177;DHT22;56478;50.982;7.032;2024-01-11T03:25:57;-4.16;78.17
68177;DHT22;56478;50.982;7.032;2024-01-11T03:28:22;-4.23;78.35
68177;DHT22;56478;50.982;7.032;2024-01-11T03:30:48;-4.18;78.21
68177;DHT22;56478;50.982;7.032;2024-01-11T03:33:13;-4.23;78.18
68177;DHT22;56478;50.982;7.032;2024-01-11T03:35:39;-4.24;78.46
68177;DHT22;56478;50.982;7.032;2024-01-11T03:38:05;-4.20;78.39
68177;DHT22;56478;50.982;7.032;2024-01-11T03:40:31;-4.33;78.90
68177;DHT22;56478;50.982;7.032;2024-01-11T03:42:56;-4.34;78.65
68177;DHT22;56478;50.982;7.032;2024-01-11T03:45:22;-4.40;78.55
68177;DHT22;56478;50.982;7.032;2024-01-11T03:47:47;-4.33;78.65
68177;DHT22;56478;50.982;7.032;2024-01-11T03:50:13;-4.37;78.94
68177;DHT22;56478;50.982;7.032;2024-01-11T03:52:39;-4.37;78.45
68177;DHT22;56478;50.982;7.032;2024-01-11T03:55:04;-4.34;78.46
68177;DHT22;56478;50.982;7.032;2024-01-11T03:57:30;-4.33;78.73
68177;DHT22;56478;50.982;7.032;2024-01-11T03:59:55;-4.31;78.68
68177;DHT22;56478;50.982;7.032;2024-01-11T04:02:21;-4.41;78.65
68177;DHT22;56478;50.982;7.032;2024-01-11T04:04:46;-4.40;78.76
68177;DHT22;56478;50.982;7.032;2024-01-11T04:07:12;-4.35;79.01
68177;DHT22;56478;50.982;7.032;2024-01-11T04:09:38;-4.41;78.99
68177;DHT22;56478;50.982;7.032;2024-01-11T04:12:04;-4.44;78.75
68177;DHT22;56478;50.982;7.032;2024-01-11T04:14:29;-4.42;79.14
68177;DHT22;56478;50.982;7.032;2024-01-11T04:16:55;-4.47;78.65
68177;DHT22;56478;50.982;7.032;2024-01-11T04:19:20;-4.50;79.18
68177;DHT22;56478;50.982;7.032;2024-01-11T04:21:45;-4.55;79.14
68177;DHT22;56478;50.982;7.032;2024-01-11T04:24:11;-4.58;78.81
68177;DHT22;56478;50.982;7.032;2024-01-11T04:26:36;-4.62;79.04
68177;DHT22;56478;50.982;7.032;2024-01-11T04:29:02;-4.54;79.29
68177;DHT22;56478;50.982;7.032;2024-01-11T04:31:28;-4.57;79.57
68177;DHT22;56478;50.982;7.032;2024-01-11T04:33:53;-4.50;79.38
68177;DHT22;56478;50.982;7.032;2024-01-11T04:36:19;-4.54;78.63
68177;DHT22;56478;50.982;7.032;2024-01-11T04:38:45;-4.57;79.36
68177;DHT22;56478;50.982;7.032;2024-01-11T04:41:11;-4.65;79.28
68177;DHT22;56478;50.982;7.032;2024-01-11T04:43:40;-4.69;78.96
68177;DHT22;56478;50.982;7.032;2024-01-11T04:46:15;-4.75;78.89
68177;DHT22;56478;50.982;7.032;2024-01-11T04:48:41;-4.71;79.11
68177;DHT22;56478;50.982;7.032;2024-01-11T04:51:07;-4.76;80.31
68177;DHT22;56478;50.982;7.032;2024-01-11T04:53:33;-4.76;79.35
68177;DHT22;56478;50.982;7.032;2024-01-11T04:55:58;-4.75;79.38
68177;DHT22;56478;50.982;7.032;2024-01-11T04:58:23;-4.73;79.45
68177;DHT22;56478;50.982;7.032;2024-01-11T05:00:49;-4.66;79.20
68177;DHT22;56478;50.982;7.032;2024-01-11T05:03:14;-4.72;79.18
68177;DHT22;56478;50.982;7.032;2024-01-11T05:05:40;-4.73;79.27
68177;DHT22;56478;50.982;7.032;2024-01-11T05:08:05;-4.69;79.21
68177;DHT22;56478;50.982;7.032;2024-01-11T05:10:31;-4.72;79.14
68177;DHT22;56478;50.982;7.032;2024-01-11T05:12:56;-4.73;79.45
68177;DHT22;56478;50.982;7.032;2024-01-11T05:15:21;-4.80;79.85
68177;DHT22;56478;50.982;7.032;2024-01-11T05:17:47;-4.79;79.41
68177;DHT22;56478;50.982;7.032;2024-01-11T05:20:12;-4.65;79.06
68177;DHT22;56478;50.982;7.032;2024-01-11T05:22:38;-4.75;79.20
68177;DHT22;56478;50.982;7.032;2024-01-11T05:25:06;-4.75;78.98
68177;DHT22;56478;50.982;7.032;2024-01-11T05:27:32;-4.76;79.76
68177;DHT22;56478;50.982;7.032;2024-01-11T05:29:57;-4.78;80.52
68177;DHT22;56478;50.982;7.032;2024-01-11T05:32:23;-4.66;80.02
68177;DHT22;56478;50.982;7.032;2024-01-11T05:34:48;-4.69;80.20
68177;DHT22;56478;50.982;7.032;2024-01-11T05:37:14;-4.61;80.25
68177;DHT22;56478;50.982;7.032;2024-01-11T05:39:39;-4.65;79.91
68177;DHT22;56478;50.982;7.032;2024-01-11T05:42:05;-4.71;79.49
68177;DHT22;56478;50.982;7.032;2024-01-11T05:44:31;-4.69;79.19
68177;DHT22;56478;50.982;7.032;2024-01-11T05:46:57;-4.83;79.92
68177;DHT22;56478;50.982;7.032;2024-01-11T05:49:23;-4.90;80.48
68177;DHT22;56478;50.982;7.032;2024-01-11T05:51:48;-4.89;79.23
68177;DHT22;56478;50.982;7.032;2024-01-11T05:54:17;-4.82;79.19
68177;DHT22;56478;50.982;7.032;2024-01-11T05:56:42;-4.83;79.72
68177;DHT22;56478;50.982;7.032;2024-01-11T05:59:08;-4.80;80.09
68177;DHT22;56478;50.982;7.032;2024-01-11T06:34:40;-5.07;78.93
68177;DHT22;56478;50.982;7.032;2024-01-11T06:37:13;-5.15;79.60
68177;DHT22;56478;50.982;7.032;2024-01-11T06:39:47;-5.03;79.86
68177;DHT22;56478;50.982;7.032;2024-01-11T06:42:21;-5.00;79.40
68177;DHT22;56478;50.982;7.032;2024-01-11T06:44:49;-4.95;79.37
68177;DHT22;56478;50.982;7.032;2024-01-11T06:47:14;-4.95;78.88
68177;DHT22;56478;50.982;7.032;2024-01-11T06:49:40;-4.97;79.33
68177;DHT22;56478;50.982;7.032;2024-01-11T06:52:06;-4.92;78.73
68177;DHT22;56478;50.982;7.032;2024-01-11T06:54:31;-4.87;79.45
68177;DHT22;56478;50.982;7.032;2024-01-11T06:57:00;-4.95;78.97
68177;DHT22;56478;50.982;7.032;2024-01-11T06:59:25;-4.90;79.26
68177;DHT22;56478;50.982;7.032;2024-01-11T07:04:54;-4.99;78.97
68177;DHT22;56478;50.982;7.032;2024-01-11T07:13:27;-5.06;79.45
68177;DHT22;56478;50.982;7.032;2024-01-11T07:15:53;-5.10;79.11
68177;DHT22;56478;50.982;7.032;2024-01-11T07:18:23;-5.18;79.41
68177;DHT22;56478;50.982;7.032;2024-01-11T07:20:48;-5.17;79.57
68177;DHT22;56478;50.982;7.032;2024-01-11T07:23:14;-5.13;79.11
68177;DHT22;56478;50.982;7.032;2024-01-11T07:25:39;-5.17;79.28
68177;DHT22;56478;50.982;7.032;2024-01-11T07:28:05;-5.21;79.35
68177;DHT22;56478;50.982;7.032;2024-01-11T07:30:31;-5.27;79.36
68177;DHT22;56478;50.982;7.032;2024-01-11T07:32:56;-5.24;79.63
68177;DHT22;56478;50.982;7.032;2024-01-11T07:35:22;-5.11;79.41
68177;DHT22;56478;50.982;7.032;2024-01-11T07:37:47;-5.08;79.25
68177;DHT22;56478;50.982;7.032;2024-01-11T07:40:12;-5.13;79.14
68177;DHT22;56478;50.982;7.032;2024-01-11T07:42:38;-5.06;79.34
68177;DHT22;56478;50.982;7.032;2024-01-11T07:45:04;-4.97;79.45
68177;DHT22;56478;50.982;7.032;2024-01-11T07:47:30;-4.92;78.91
68177;DHT22;56478;50.982;7.032;2024-01-11T07:49:55;-4.99;78.27
68177;DHT22;56478;50.982;7.032;2024-01-11T07:52:21;-5.01;77.94
68177;DHT22;56478;50.982;7.032;2024-01-11T07:54:46;-4.97;77.90
68177;DHT22;56478;50.982;7.032;2024-01-11T07:57:12;-4.99;78.25
68177;DHT22;56478;50.982;7.032;2024-01-11T07:59:37;-5.00;78.36
68177;DHT22;56478;50.982;7.032;2024-01-11T08:02:03;-4.97;78.64
68177;DHT22;56478;50.982;7.032;2024-01-11T08:04:29;-4.82;78.72
68177;DHT22;56478;50.982;7.032;2024-01-11T08:06:54;-4.79;78.79
68177;DHT22;56478;50.982;7.032;2024-01-11T08:09:19;-4.80;78.68
68177;DHT22;56478;50.982;7.032;2024-01-11T08:11:45;-4.71;79.02
68177;DHT22;56478;50.982;7.032;2024-01-11T08:14:11;-4.50;78.49
68177;DHT22;56478;50.982;7.032;2024-01-11T08:16:36;-4.00;77.24
68177;DHT22;56478;50.982;7.032;2024-01-11T08:19:02;-3.44;74.72
68177;DHT22;56478;50.982;7.032;2024-01-11T08:21:28;-2.80;72.59
68177;DHT22;56478;50.982;7.032;2024-01-11T08:23:53;-2.54;71.01
68177;DHT22;56478;50.982;7.032;2024-01-11T08:26:20;-2.12;69.71
68177;DHT22;56478;50.982;7.032;2024-01-11T08:28:46;-2.05;70.20
68177;DHT22;56478;50.982;7.032;2024-01-11T08:31:12;-2.21;69.69
68177;DHT22;56478;50.982;7.032;2024-01-11T08:33:37;-2.11;69.98
68177;DHT22;56478;50.982;7.032;2024-01-11T08:36:06;-2.12;70.03
68177;DHT22;56478;50.982;7.032;2024-01-11T08:38:31;-1.85;69.78
68177;DHT22;56478;50.982;7.032;2024-01-11T08:40:57;-1.56;68.12
68177;DHT22;56478;50.982;7.032;2024-01-11T08:43:24;-1.60;68.79
68177;DHT22;56478;50.982;7.032;2024-01-11T08:45:49;-1.50;68.19
68177;DHT22;56478;50.982;7.032;2024-01-11T08:48:15;-1.46;68.74
68177;DHT22;56478;50.982;7.032;2024-01-11T08:50:40;-1.57;68.51
68177;DHT22;56478;50.982;7.032;2024-01-11T08:53:06;-1.62;68.96
68177;DHT22;56478;50.982;7.032;2024-01-11T08:55:31;-1.36;68.78
68177;DHT22;56478;50.982;7.032;2024-01-11T08:57:57;-1.46;69.30
68177;DHT22;56478;50.982;7.032;2024-01-11T09:00:23;-1.43;68.68
68177;DHT22;56478;50.982;7.032;2024-01-11T09:02:48;-1.36;69.40
68177;DHT22;56478;50.982;7.032;2024-01-11T09:05:14;-1.22;68.90
68177;DHT22;56478;50.982;7.032;2024-01-11T09:07:43;-1.32;68.64
68177;DHT22;56478;50.982;7.032;2024-01-11T09:10:09;-1.36;69.24
68177;DHT22;56478;50.982;7.032;2024-01-11T09:12:35;-1.39;69.85
68177;DHT22;56478;50.982;7.032;2024-01-11T09:15:00;-1.21;69.11
68177;DHT22;56478;50.982;7.032;2024-01-11T09:17:25;-1.18;69.46
68177;DHT22;56478;50.982;7.032;2024-01-11T09:19:51;-0.94;68.21
68177;DHT22;56478;50.982;7.032;2024-01-11T09:22:17;-0.52;67.74
68177;DHT22;56478;50.982;7.032;2024-01-11T09:24:42;0.21;65.44
68177;DHT22;56478;50.982;7.032;2024-01-11T09:27:08;0.41;64.56
68177;DHT22;56478;50.982;7.032;2024-01-11T09:29:33;0.94;63.04
68177;DHT22;56478;50.982;7.032;2024-01-11T09:31:59;1.53;61.75
68177;DHT22;56478;50.982;7.032;2024-01-11T09:34:24;2.73;60.15
68177;DHT22;56478;50.982;7.032;2024-01-11T09:36:50;3.04;57.42
68177;DHT22;56478;50.982;7.032;2024-01-11T09:39:15;3.60;53.86
68177;DHT22;56478;50.982;7.032;2024-01-11T09:41:42;3.75;54.06
68177;DHT22;56478;50.982;7.032;2024-01-11T09:44:11;3.85;54.42
68177;DHT22;56478;50.982;7.032;2024-01-11T09:46:37;3.89;54.99
68177;DHT22;56478;50.982;7.032;2024-01-11T09:49:03;3.73;54.36
68177;DHT22;56478;50.982;7.032;2024-01-11T09:51:29;3.87;54.61
68177;DHT22;56478;50.982;7.032;2024-01-11T09:53:54;4.12;53.71
68177;DHT22;56478;50.982;7.032;2024-01-11T09:56:21;3.53;55.52
68177;DHT22;56478;50.982;7.032;2024-01-11T09:58:47;2.61;57.72
68177;DHT22;56478;50.982;7.032;2024-01-11T10:01:16;1.60;60.54
68177;DHT22;56478;50.982;7.032;2024-01-11T10:03:42;2.08;60.37
68177;DHT22;56478;50.982;7.032;2024-01-11T10:06:07;2.18;59.34
68177;DHT22;56478;50.982;7.032;2024-01-11T10:08:34;2.24;59.44
68177;DHT22;56478;50.982;7.032;2024-01-11T10:11:00;3.20;58.01
68177;DHT22;56478;50.982;7.032;2024-01-11T10:13:29;3.47;56.47
68177;DHT22;56478;50.982;7.032;2024-01-11T10:16:10;4.50;53.84
68177;DHT22;56478;50.982;7.032;2024-01-11T10:18:38;5.02;52.89
68177;DHT22;56478;50.982;7.032;2024-01-11T10:21:04;5.33;51.34
68177;DHT22;56478;50.982;7.032;2024-01-11T10:23:33;5.43;51.44
68177;DHT22;56478;50.982;7.032;2024-01-11T10:25:59;5.76;50.65
68177;DHT22;56478;50.982;7.032;2024-01-11T10:28:25;5.98;49.68
68177;DHT22;56478;50.982;7.032;2024-01-11T10:30:50;6.00;50.07
68177;DHT22;56478;50.982;7.032;2024-01-11T10:33:18;5.82;50.06
68177;DHT22;56478;50.982;7.032;2024-01-11T10:35:45;6.26;49.23
68177;DHT22;56478;50.982;7.032;2024-01-11T10:38:10;5.99;49.03
68177;DHT22;56478;50.982;7.032;2024-01-11T10:40:36;5.30;50.70
68177;DHT22;56478;50.982;7.032;2024-01-11T10:43:02;4.05;54.35
68177;DHT22;56478;50.982;7.032;2024-01-11T10:45:28;4.01;55.28
68177;DHT22;56478;50.982;7.032;2024-01-11T10:47:54;4.17;55.40
68177;DHT22;56478;50.982;7.032;2024-01-11T10:50:22;3.63;57.06
68177;DHT22;56478;50.982;7.032;2024-01-11T10:53:02;3.39;57.17
68177;DHT22;56478;50.982;7.032;2024-01-11T10:55:29;3.37;57.86
68177;DHT22;56478;50.982;7.032;2024-01-11T10:57:55;3.66;57.32
68177;DHT22;56478;50.982;7.032;2024-01-11T11:00:23;3.47;57.33
68177;DHT22;56478;50.982;7.032;2024-01-11T11:02:49;3.67;57.28
68177;DHT22;56478;50.982;7.032;2024-01-11T11:05:16;3.53;58.12
68177;DHT22;56478;50.982;7.032;2024-01-11T11:07:43;3.32;58.55
68177;DHT22;56478;50.982;7.032;2024-01-11T11:10:09;3.74;57.96
68177;DHT22;56478;50.982;7.032;2024-01-11T11:12:35;3.07;60.12
68177;DHT22;56478;50.982;7.032;2024-01-11T11:15:01;2.94;60.16
68177;DHT22;56478;50.982;7.032;2024-01-11T11:17:28;2.79;61.43
68177;DHT22;56478;50.982;7.032;2024-01-11T11:19:54;2.95;61.36
68177;DHT22;56478;50.982;7.032;2024-01-11T11:22:19;3.13;60.65
68177;DHT22;56478;50.982;7.032;2024-01-11T11:24:45;3.13;60.54
68177;DHT22;56478;50.982;7.032;2024-01-11T11:27:13;2.98;61.84
68177;DHT22;56478;50.982;7.032;2024-01-11T11:29:39;2.83;62.40
68177;DHT22;56478;50.982;7.032;2024-01-11T11:32:05;2.72;62.67
68177;DHT22;56478;50.982;7.032;2024-01-11T11:34:43;2.76;63.10
68177;DHT22;56478;50.982;7.032;2024-01-11T11:37:12;2.95;62.60
68177;DHT22;56478;50.982;7.032;2024-01-11T11:39:37;2.98;61.88
68177;DHT22;56478;50.982;7.032;2024-01-11T11:42:04;2.88;62.66
68177;DHT22;56478;50.982;7.032;2024-01-11T11:44:29;3.05;62.55
68177;DHT22;56478;50.982;7.032;2024-01-11T11:46:56;2.77;62.27
68177;DHT22;56478;50.982;7.032;2024-01-11T11:52:25;2.84;63.01
68177;DHT22;56478;50.982;7.032;2024-01-11T11:54:50;2.66;63.30
68177;DHT22;56478;50.982;7.032;2024-01-11T11:57:17;2.68;63.62
68177;DHT22;56478;50.982;7.032;2024-01-11T11:59:43;2.85;62.78
68177;DHT22;56478;50.982;7.032;2024-01-11T12:02:08;2.74;63.51
68177;DHT22;56478;50.982;7.032;2024-01-11T12:04:45;2.77;64.08
68177;DHT22;56478;50.982;7.032;2024-01-11T12:07:11;2.91;63.46
68177;DHT22;56478;50.982;7.032;2024-01-11T12:09:36;2.91;63.73
68177;DHT22;56478;50.982;7.032;2024-01-11T12:12:02;2.64;65.03
68177;DHT22;56478;50.982;7.032;2024-01-11T12:14:28;2.73;65.38
68177;DHT22;56478;50.982;7.032;2024-01-11T12:16:57;2.58;65.64
68177;DHT22;56478;50.982;7.032;2024-01-11T12:19:23;2.68;65.20
68177;DHT22;56478;50.982;7.032;2024-01-11T12:21:49;2.74;64.95
68177;DHT22;56478;50.982;7.032;2024-01-11T12:24:15;2.79;65.35
68177;DHT22;56478;50.982;7.032;2024-01-11T12:26:40;2.84;64.91
68177;DHT22;56478;50.982;7.032;2024-01-11T12:29:06;2.97;64.53
68177;DHT22;56478;50.982;7.032;2024-01-11T12:31:32;2.88;65.03
68177;DHT22;56478;50.982;7.032;2024-01-11T12:33:57;2.84;64.25
68177;DHT22;56478;50.982;7.032;2024-01-11T12:36:23;2.80;63.85
68177;DHT22;56478;50.982;7.032;2024-01-11T12:38:48;2.80;65.19
68177;DHT22;56478;50.982;7.032;2024-01-11T12:41:14;2.90;64.65
68177;DHT22;56478;50.982;7.032;2024-01-11T12:43:39;2.81;64.49
68177;DHT22;56478;50.982;7.032;2024-01-11T12:46:05;2.79;64.48
68177;DHT22;56478;50.982;7.032;2024-01-11T12:48:30;2.76;64.38
68177;DHT22;56478;50.982;7.032;2024-01-11T12:50:56;2.83;64.85
68177;DHT22;56478;50.982;7.032;2024-01-11T12:53:21;2.85;63.72
68177;DHT22;56478;50.982;7.032;2024-01-11T12:55:47;2.87;63.88
68177;DHT22;56478;50.982;7.032;2024-01-11T12:58:13;3.02;62.60
68177;DHT22;56478;50.982;7.032;2024-01-11T13:00:44;3.07;62.42
68177;DHT22;56478;50.982;7.032;2024-01-11T13:03:09;3.08;62.15
68177;DHT22;56478;50.982;7.032;2024-01-11T13:05:35;2.88;63.18
68177;DHT22;56478;50.982;7.032;2024-01-11T13:08:10;2.83;63.64
68177;DHT22;56478;50.982;7.032;2024-01-11T13:10:36;2.92;63.06
68177;DHT22;56478;50.982;7.032;2024-01-11T13:13:02;2.79;64.36
68177;DHT22;56478;50.982;7.032;2024-01-11T13:15:27;2.70;64.73
68177;DHT22;56478;50.982;7.032;2024-01-11T13:17:54;2.84;64.31
68177;DHT22;56478;50.982;7.032;2024-01-11T13:20:20;2.76;65.33
68177;DHT22;56478;50.982;7.032;2024-01-11T13:22:46;2.88;64.28
68177;DHT22;56478;50.982;7.032;2024-01-11T13:25:12;2.91;64.03
68177;DHT22;56478;50.982;7.032;2024-01-11T13:27:37;2.80;64.67
68177;DHT22;56478;50.982;7.032;2024-01-11T13:30:03;2.77;65.31
68177;DHT22;56478;50.982;7.032;2024-01-11T13:32:28;2.90;65.42
68177;DHT22;56478;50.982;7.032;2024-01-11T13:34:53;3.13;63.54
68177;DHT22;56478;50.982;7.032;2024-01-11T13:37:19;3.07;63.43
68177;DHT22;56478;50.982;7.032;2024-01-11T13:39:45;2.92;64.51
68177;DHT22;56478;50.982;7.032;2024-01-11T13:42:10;2.88;65.77
68177;DHT22;56478;50.982;7.032;2024-01-11T13:44:36;2.80;65.30
68177;DHT22;56478;50.982;7.032;2024-01-11T13:47:01;2.91;64.91
68177;DHT22;56478;50.982;7.032;2024-01-11T13:49:27;2.83;64.73
68177;DHT22;56478;50.982;7.032;2024-01-11T13:51:52;2.85;63.91
68177;DHT22;56478;50.982;7.032;2024-01-11T13:54:18;2.98;63.34
68177;DHT22;56478;50.982;7.032;2024-01-11T13:56:43;2.84;64.11
68177;DHT22;56478;50.982;7.032;2024-01-11T13:59:08;2.73;64.07
68177;DHT22;56478;50.982;7.032;2024-01-11T14:01:34;2.68;64.84
68177;DHT22;56478;50.982;7.032;2024-01-11T14:03:59;2.76;64.37
68177;DHT22;56478;50.982;7.032;2024-01-11T14:06:24;2.79;65.26
68177;DHT22;56478;50.982;7.032;2024-01-11T14:08:50;2.77;65.34
68177;DHT22;56478;50.982;7.032;2024-01-11T14:11:15;2.73;65.15
68177;DHT22;56478;50.982;7.032;2024-01-11T14:13:41;2.72;64.49
68177;DHT22;56478;50.982;7.032;2024-01-11T14:16:06;2.67;63.53
68177;DHT22;56478;50.982;7.032;2024-01-11T14:18:32;2.68;63.25
68177;DHT22;56478;50.982;7.032;2024-01-11T14:20:58;2.66;63.20
68177;DHT22;56478;50.982;7.032;2024-01-11T14:23:23;2.66;62.77
68177;DHT22;56478;50.982;7.032;2024-01-11T14:25:49;2.64;61.63
68177;DHT22;56478;50.982;7.032;2024-01-11T14:28:14;2.74;61.63
68177;DHT22;56478;50.982;7.032;2024-01-11T14:30:40;2.72;62.84
68177;DHT22;56478;50.982;7.032;2024-01-11T14:33:05;2.67;61.90
68177;DHT22;56478;50.982;7.032;2024-01-11T14:35:30;2.68;61.61
68177;DHT22;56478;50.982;7.032;2024-01-11T14:37:56;2.64;62.11
68177;DHT22;56478;50.982;7.032;2024-01-11T14:40:21;2.61;61.65
68177;DHT22;56478;50.982;7.032;2024-01-11T14:42:47;2.63;60.89
68177;DHT22;56478;50.982;7.032;2024-01-11T14:45:13;2.60;60.82
68177;DHT22;56478;50.982;7.032;2024-01-11T14:47:38;2.54;60.49
68177;DHT22;56478;50.982;7.032;2024-01-11T14:50:04;2.54;61.37
68177;DHT22;56478;50.982;7.032;2024-01-11T14:52:29;2.54;60.90
68177;DHT22;56478;50.982;7.032;2024-01-11T14:54:56;2.45;60.64
68177;DHT22;56478;50.982;7.032;2024-01-11T14:57:21;2.46;60.16
68177;DHT22;56478;50.982;7.032;2024-01-11T14:59:47;2.52;61.21
68177;DHT22;56478;50.982;7.032;2024-01-11T15:02:12;2.46;60.61
68177;DHT22;56478;50.982;7.032;2024-01-11T15:04:37;2.36;60.65
68177;DHT22;56478;50.982;7.032;2024-01-11T15:07:03;2.31;61.15
68177;DHT22;56478;50.982;7.032;2024-01-11T15:09:29;2.33;60.85
68177;DHT22;56478;50.982;7.032;2024-01-11T15:11:54;2.25;61.32
68177;DHT22;56478;50.982;7.032;2024-01-11T15:14:19;2.21;61.96
68177;DHT22;56478;50.982;7.032;2024-01-11T15:16:45;2.24;62.52
68177;DHT22;56478;50.982;7.032;2024-01-11T15:19:11;2.20;62.65
68177;DHT22;56478;50.982;7.032;2024-01-11T15:21:40;2.08;62.24
68177;DHT22;56478;50.982;7.032;2024-01-11T15:24:06;2.07;62.91
68177;DHT22;56478;50.982;7.032;2024-01-11T15:26:32;2.11;62.20
68177;DHT22;56478;50.982;7.032;2024-01-11T15:28:57;1.94;62.48
68177;DHT22;56478;50.982;7.032;2024-01-11T15:31:23;1.84;61.82
68177;DHT22;56478;50.982;7.032;2024-01-11T15:33:48;1.87;61.38
68177;DHT22;56478;50.982;7.032;2024-01-11T15:36:14;1.83;62.56
68177;DHT22;56478;50.982;7.032;2024-01-11T15:38:39;1.83;61.88
68177;DHT22;56478;50.982;7.032;2024-01-11T15:41:04;1.76;62.51
68177;DHT22;56478;50.982;7.032;2024-01-11T15:43:30;1.70;61.88
68177;DHT22;56478;50.982;7.032;2024-01-11T15:45:56;1.67;62.96
68177;DHT22;56478;50.982;7.032;2024-01-11T15:48:21;1.67;61.66
68177;DHT22;56478;50.982;7.032;2024-01-11T15:50:47;1.66;61.86
68177;DHT22;56478;50.982;7.032;2024-01-11T15:53:12;1.53;62.05
68177;DHT22;56478;50.982;7.032;2024-01-11T15:55:37;1.50;61.64
68177;DHT22;56478;50.982;7.032;2024-01-11T15:58:03;1.48;61.17
68177;DHT22;56478;50.982;7.032;2024-01-11T16:00:29;1.39;60.76
68177;DHT22;56478;50.982;7.032;2024-01-11T16:02:56;1.38;60.12
68177;DHT22;56478;50.982;7.032;2024-01-11T16:05:21;1.31;59.26
68177;DHT22;56478;50.982;7.032;2024-01-11T16:07:47;1.27;60.00
68177;DHT22;56478;50.982;7.032;2024-01-11T16:10:12;1.21;60.01
68177;DHT22;56478;50.982;7.032;2024-01-11T16:12:39;1.20;60.42
68177;DHT22;56478;50.982;7.032;2024-01-11T16:15:05;1.17;60.41
68177;DHT22;56478;50.982;7.032;2024-01-11T16:17:30;1.13;60.07